Time;durP1;ratioP1;P1;durP2;ratioP2;P2;SDS_P1;SDS_P2;PMS_P1;PMS_P2;Temp;Humidity;BMP_temperature;BMP_pressure;BME280_temperature;BME280_humidity;BME280_pressure;Samples;Min_cycle;Max_cycle;Signal;HPM_P1;HPM_P2
2023/08/24 00:00:55;;;;;;;7.80;6.75;;;21.40;1.00;;;;;;7388601;19;20089;-70
2023/08/24 00:03:25;;;;;;;9.63;7.13;;;21.10;1.00;;;;;;7386728;19;20086;-68
2023/08/24 00:05:58;;;;;;;8.95;7.47;;;20.90;1.00;;;;;;7394032;19;20031;-69
2023/08/24 00:08:28;;;;;;;8.48;7.10;;;20.70;1.00;;;;;;7384506;19;20031;-67
2023/08/24 00:10:58;;;;;;;8.60;7.43;;;20.50;1.00;;;;;;7387874;19;20015;-68
2023/08/24 00:13:27;;;;;;;10.73;7.43;;;20.50;1.00;;;;;;7384032;19;20720;-68
2023/08/24 00:15:57;;;;;;;10.55;7.88;;;20.50;1.00;;;;;;7391131;19;20014;-69
2023/08/24 00:18:27;;;;;;;12.05;7.82;;;20.40;1.00;;;;;;7386724;19;20026;-69
2023/08/24 00:21:02;;;;;;;12.05;7.90;;;20.40;1.00;;;;;;7388426;19;20546;-69
2023/08/24 00:23:32;;;;;;;12.77;8.05;;;20.30;1.00;;;;;;7385829;19;20808;-69
2023/08/24 00:26:02;;;;;;;10.38;8.38;;;20.30;1.00;;;;;;7392141;19;20090;-69
2023/08/24 00:28:32;;;;;;;10.70;8.05;;;20.20;1.00;;;;;;7388222;19;20640;-69
2023/08/24 00:30:59;;;;;;;8.73;7.30;;;20.20;1.00;;;;;;7388269;19;20078;-68
2023/08/24 00:33:29;;;;;;;9.05;7.90;;;20.30;1.00;;;;;;7385845;19;20007;-69
2023/08/24 00:36:05;;;;;;;9.18;7.72;;;20.40;1.00;;;;;;7392904;19;20021;-69
2023/08/24 00:38:35;;;;;;;10.48;7.90;;;20.40;1.00;;;;;;7389464;19;20011;-68
2023/08/24 00:41:05;;;;;;;11.23;8.18;;;20.50;1.00;;;;;;7388168;19;20078;-69
2023/08/24 00:43:35;;;;;;;10.35;7.80;;;20.40;1.00;;;;;;7387766;19;20025;-69
2023/08/24 00:46:06;;;;;;;8.18;7.38;;;20.40;1.00;;;;;;7393040;19;20074;-69
2023/08/24 00:48:36;;;;;;;13.52;8.20;;;20.40;1.00;;;;;;7388321;19;20015;-70
2023/08/24 00:51:09;;;;;;;11.00;8.05;;;20.30;1.00;;;;;;7388052;19;20011;-67
2023/08/24 00:53:40;;;;;;;9.65;8.20;;;20.40;1.00;;;;;;7387093;19;20030;-68
2023/08/24 00:56:10;;;;;;;9.98;8.05;;;20.50;1.00;;;;;;7392762;19;20024;-69
2023/08/24 00:58:41;;;;;;;10.13;7.80;;;20.50;1.00;;;;;;7387980;19;20022;-70
2023/08/24 01:01:11;;;;;;;7.60;6.78;;;20.60;1.00;;;;;;7385804;19;20011;-68
2023/08/24 01:03:41;;;;;;;7.32;6.60;;;20.80;1.00;;;;;;7388097;19;20018;-68
2023/08/24 01:06:14;;;;;;;7.45;5.90;;;20.90;1.00;;;;;;7392701;19;20018;-69
2023/08/24 01:08:44;;;;;;;8.82;6.53;;;21.00;1.00;;;;;;7388258;19;20098;-68
2023/08/24 01:11:24;;;;;;;7.63;6.30;;;21.00;1.00;;;;;;7387626;19;20022;-70
2023/08/24 01:14:02;;;;;;;8.88;6.95;;;21.00;1.00;;;;;;7386277;19;20348;-69
2023/08/24 01:16:36;;;;;;;7.40;6.68;;;20.90;1.00;;;;;;7388647;19;20043;-70
2023/08/24 01:19:09;;;;;;;8.98;6.43;;;20.80;1.00;;;;;;7387809;19;20035;-68
2023/08/24 01:21:42;;;;;;;7.90;7.10;;;20.70;1.00;;;;;;7386853;19;20074;-68
2023/08/24 01:24:19;;;;;;;8.52;6.25;;;20.80;1.00;;;;;;7387015;19;20021;-69
2023/08/24 01:26:52;;;;;;;7.47;6.70;;;20.80;1.00;;;;;;7386339;19;20127;-69
2023/08/24 01:29:23;;;;;;;7.88;6.85;;;20.80;1.00;;;;;;7387237;19;20018;-68
2023/08/24 01:31:53;;;;;;;11.05;6.75;;;20.70;1.00;;;;;;7386414;19;20482;-69
2023/08/24 01:34:23;;;;;;;9.80;6.82;;;20.70;1.00;;;;;;7385880;19;20010;-69
2023/08/24 01:36:53;;;;;;;7.20;5.63;;;20.60;1.00;;;;;;7387263;19;20018;-68
2023/08/24 01:39:30;;;;;;;7.05;5.32;;;20.70;1.00;;;;;;7387182;19;20015;-68
2023/08/24 01:42:05;;;;;;;7.15;5.63;;;20.80;1.00;;;;;;7387831;19;20504;-68
2023/08/24 01:44:40;;;;;;;8.48;6.38;;;20.90;1.00;;;;;;7386675;19;20014;-68
2023/08/24 01:47:11;;;;;;;8.70;5.90;;;20.90;1.00;;;;;;7391279;19;20014;-68
2023/08/24 01:49:43;;;;;;;7.32;6.57;;;20.70;1.00;;;;;;7386339;19;20022;-68
2023/08/24 01:52:13;;;;;;;7.30;6.60;;;20.60;1.00;;;;;;7388012;19;20088;-68
2023/08/24 01:54:43;;;;;;;9.20;6.55;;;20.60;1.00;;;;;;7386118;19;20011;-69
2023/08/24 01:57:15;;;;;;;7.93;7.03;;;20.60;1.00;;;;;;7387124;19;20749;-69
2023/08/24 01:59:46;;;;;;;8.77;6.30;;;20.60;1.00;;;;;;7386093;19;20018;-68
2023/08/24 02:02:15;;;;;;;8.90;6.43;;;20.50;1.00;;;;;;7386726;19;20021;-68
2023/08/24 02:04:45;;;;;;;8.88;6.50;;;20.50;1.00;;;;;;7387420;19;20018;-68
2023/08/24 02:07:16;;;;;;;7.32;6.60;;;20.40;1.00;;;;;;7387053;19;20078;-68
2023/08/24 02:09:46;;;;;;;8.82;7.15;;;20.30;1.00;;;;;;7386238;19;20034;-68
2023/08/24 02:12:18;;;;;;;9.48;6.68;;;20.20;1.00;;;;;;7392962;19;20022;-69
2023/08/24 02:14:48;;;;;;;8.88;7.45;;;20.10;1.00;;;;;;7391999;19;20447;-69
2023/08/24 02:17:18;;;;;;;7.00;6.30;;;20.00;1.00;;;;;;7393718;19;20014;-68
2023/08/24 02:19:48;;;;;;;7.55;6.85;;;19.90;1.00;;;;;;7393355;19;20712;-69
2023/08/24 02:22:18;;;;;;;8.38;7.40;;;19.90;1.00;;;;;;7393421;19;20487;-68
2023/08/24 02:24:48;;;;;;;9.68;7.10;;;19.90;1.00;;;;;;7393658;19;20051;-68
2023/08/24 02:27:20;;;;;;;12.27;7.45;;;19.80;1.00;;;;;;7393483;19;20025;-69
2023/08/24 02:29:50;;;;;;;9.38;7.63;;;19.80;1.00;;;;;;7393378;19;20018;-69
2023/08/24 02:32:20;;;;;;;8.52;7.65;;;19.80;1.00;;;;;;7393882;19;20025;-69
2023/08/24 02:34:50;;;;;;;8.90;7.72;;;19.70;1.00;;;;;;7392104;19;20588;-69
2023/08/24 02:37:20;;;;;;;13.13;8.00;;;19.70;1.00;;;;;;7393299;19;20024;-68
2023/08/24 02:39:50;;;;;;;9.32;7.53;;;19.60;1.00;;;;;;7392512;19;20426;-68
2023/08/24 02:42:22;;;;;;;9.98;8.38;;;19.50;1.00;;;;;;7393139;19;20086;-68
2023/08/24 02:44:52;;;;;;;17.05;9.45;;;19.40;1.00;;;;;;7393382;19;20113;-68
2023/08/24 02:47:22;;;;;;;13.32;9.45;;;19.40;1.00;;;;;;7397158;19;20007;-68
2023/08/24 02:49:52;;;;;;;10.48;8.57;;;19.40;1.00;;;;;;7391805;19;20501;-68
2023/08/24 02:52:22;;;;;;;10.05;8.98;;;19.40;1.00;;;;;;7392535;19;20094;-68
2023/08/24 02:54:52;;;;;;;12.82;9.88;;;19.40;1.00;;;;;;7391462;19;20097;-68
2023/08/24 02:57:25;;;;;;;10.25;8.95;;;19.30;1.00;;;;;;7392672;19;20426;-68
2023/08/24 02:59:54;;;;;;;12.85;8.88;;;19.40;1.00;;;;;;7392531;19;20018;-69
2023/08/24 03:02:24;;;;;;;10.52;8.57;;;19.30;1.00;;;;;;7391994;19;20030;-68
2023/08/24 03:04:55;;;;;;;10.13;9.13;;;19.30;1.00;;;;;;7392280;19;20475;-69
2023/08/24 03:07:25;;;;;;;10.23;9.23;;;19.40;1.00;;;;;;7391227;19;20018;-69
2023/08/24 03:09:55;;;;;;;11.95;9.50;;;19.30;1.00;;;;;;7391559;19;20021;-69
2023/08/24 03:12:27;;;;;;;13.05;9.70;;;19.30;1.00;;;;;;7391963;19;20089;-68
2023/08/24 03:14:57;;;;;;;10.55;8.98;;;19.30;1.00;;;;;;7390443;19;20003;-69
2023/08/24 03:17:27;;;;;;;12.60;9.40;;;19.30;1.00;;;;;;7392261;19;20015;-69
2023/08/24 03:19:57;;;;;;;10.95;9.23;;;19.20;1.00;;;;;;7390923;19;20018;-69
2023/08/24 03:22:27;;;;;;;11.60;9.25;;;19.20;1.00;;;;;;7388503;19;20033;-69
2023/08/24 03:24:57;;;;;;;11.68;8.77;;;19.20;1.00;;;;;;7392254;19;20010;-68
2023/08/24 03:27:29;;;;;;;13.23;9.60;;;19.20;1.00;;;;;;7391699;19;20025;-69
2023/08/24 03:29:59;;;;;;;11.05;8.85;;;19.20;1.00;;;;;;7391121;19;20022;-69
2023/08/24 03:32:29;;;;;;;12.88;9.23;;;19.20;1.00;;;;;;7392203;19;20410;-69
2023/08/24 03:35:02;;;;;;;11.63;8.90;;;19.30;1.00;;;;;;7390420;19;20022;-69
2023/08/24 03:37:32;;;;;;;13.23;9.27;;;19.40;1.00;;;;;;7392464;19;20487;-68
2023/08/24 03:40:02;;;;;;;9.82;8.82;;;19.50;1.00;;;;;;7389990;19;20090;-68
2023/08/24 03:42:35;;;;;;;12.88;9.88;;;19.60;1.00;;;;;;7390040;19;20035;-68
2023/08/24 03:45:05;;;;;;;9.45;8.55;;;19.70;1.00;;;;;;7389485;19;20346;-68
2023/08/24 03:47:35;;;;;;;10.57;9.57;;;19.70;1.00;;;;;;7395527;19;20023;-69
2023/08/24 03:50:06;;;;;;;10.07;9.07;;;19.80;1.00;;;;;;7390506;19;20010;-68
2023/08/24 03:52:36;;;;;;;9.00;8.20;;;19.90;1.00;;;;;;7390675;19;20021;-69
2023/08/24 03:55:07;;;;;;;10.05;8.25;;;20.00;1.00;;;;;;7387914;19;20493;-69
2023/08/24 03:57:40;;;;;;;10.88;9.00;;;20.10;1.00;;;;;;7391635;19;20014;-68
2023/08/24 04:00:12;;;;;;;11.57;8.05;;;20.20;1.00;;;;;;7390379;19;20483;-68
2023/08/24 04:02:42;;;;;;;13.07;8.60;;;20.20;1.00;;;;;;7390299;19;20014;-68
2023/08/24 04:05:12;;;;;;;12.60;8.68;;;20.20;1.00;;;;;;7390735;19;20409;-68
2023/08/24 04:07:42;;;;;;;8.63;7.82;;;20.50;1.00;;;;;;7391243;19;20030;-69
2023/08/24 04:10:12;;;;;;;13.23;8.27;;;20.50;1.00;;;;;;7389769;19;20020;-69
2023/08/24 04:12:45;;;;;;;10.70;8.68;;;20.50;1.00;;;;;;7391023;19;20013;-68
2023/08/24 04:15:15;;;;;;;11.50;7.88;;;20.40;1.00;;;;;;7388640;19;20066;-69
2023/08/24 04:17:45;;;;;;;9.52;7.45;;;20.40;1.00;;;;;;7390500;19;20378;-69
2023/08/24 04:20:15;;;;;;;9.40;6.53;;;20.40;1.00;;;;;;7389163;19;20014;-69
2023/08/24 04:22:46;;;;;;;9.05;6.80;;;20.50;1.00;;;;;;7390697;19;20018;-68
2023/08/24 04:25:16;;;;;;;12.55;6.60;;;20.60;1.00;;;;;;7390067;19;20108;-68
2023/08/24 04:27:48;;;;;;;9.88;6.07;;;20.60;1.00;;;;;;7389478;19;20499;-68
2023/08/24 04:30:19;;;;;;;8.63;5.85;;;20.60;1.00;;;;;;7388552;19;20010;-68
2023/08/24 04:32:50;;;;;;;7.57;6.00;;;20.50;1.00;;;;;;7389867;19;20022;-68
2023/08/24 04:35:20;;;;;;;7.28;5.85;;;20.40;1.00;;;;;;7388921;19;20006;-68
2023/08/24 04:37:50;;;;;;;6.95;6.25;;;20.30;1.00;;;;;;7390115;19;20018;-68
2023/08/24 04:40:21;;;;;;;8.68;6.07;;;20.30;1.00;;;;;;7388520;19;20020;-69
2023/08/24 04:42:53;;;;;;;7.25;5.88;;;20.30;1.00;;;;;;7388283;19;20558;-69
2023/08/24 04:45:23;;;;;;;7.60;5.45;;;20.40;1.00;;;;;;7389523;19;20089;-69
2023/08/24 04:47:53;;;;;;;6.82;6.10;;;20.50;1.00;;;;;;7389129;19;20358;-69
2023/08/24 04:50:23;;;;;;;6.43;5.80;;;20.50;1.00;;;;;;7388787;19;20018;-68
2023/08/24 04:52:53;;;;;;;9.57;6.65;;;20.50;1.00;;;;;;7389324;19;20085;-68
2023/08/24 04:55:23;;;;;;;8.13;6.00;;;20.60;1.00;;;;;;7388258;19;20096;-69
2023/08/24 04:57:55;;;;;;;8.68;6.30;;;20.60;1.00;;;;;;7389008;19;20428;-69
2023/08/24 05:00:25;;;;;;;9.02;6.65;;;20.60;1.00;;;;;;7387652;19;20455;-68
2023/08/24 05:02:55;;;;;;;7.43;5.90;;;20.60;1.00;;;;;;7388712;19;20011;-68
2023/08/24 05:05:26;;;;;;;7.82;6.25;;;20.50;1.00;;;;;;7388395;19;20467;-68
2023/08/24 05:07:57;;;;;;;7.55;6.10;;;20.50;1.00;;;;;;7388957;19;20014;-69
2023/08/24 05:10:27;;;;;;;8.57;6.38;;;20.60;1.00;;;;;;7387658;19;20105;-68
2023/08/24 05:13:00;;;;;;;9.45;6.50;;;20.70;1.00;;;;;;7388593;19;20082;-68
2023/08/24 05:15:30;;;;;;;6.65;5.63;;;20.60;1.00;;;;;;7387521;19;20031;-68
2023/08/24 05:18:00;;;;;;;11.68;7.43;;;20.60;1.00;;;;;;7388918;19;20049;-67
2023/08/24 05:20:31;;;;;;;8.00;6.78;;;20.60;1.00;;;;;;7387178;19;20094;-68
2023/08/24 05:23:01;;;;;;;11.73;7.07;;;20.60;1.00;;;;;;7388202;19;20078;-68
2023/08/24 05:25:31;;;;;;;10.90;7.28;;;20.70;1.00;;;;;;7388378;19;20006;-69
2023/08/24 05:28:03;;;;;;;9.25;6.65;;;20.70;1.00;;;;;;7387165;19;20019;-69
2023/08/24 05:30:33;;;;;;;9.23;7.43;;;20.80;1.00;;;;;;7387192;19;20018;-69
2023/08/24 05:33:03;;;;;;;10.70;7.65;;;20.90;1.00;;;;;;7387359;19;20507;-69
2023/08/24 05:35:33;;;;;;;9.15;6.80;;;21.70;1.00;;;;;;7386966;19;20038;-68
2023/08/24 05:38:03;;;;;;;9.85;7.38;;;21.60;1.00;;;;;;7387116;19;20082;-69
2023/08/24 05:40:37;;;;;;;11.57;8.05;;;21.10;1.00;;;;;;7386730;19;20435;-68
2023/08/24 05:43:09;;;;;;;9.73;7.75;;;21.10;1.00;;;;;;7386890;19;20022;-68
2023/08/24 05:45:40;;;;;;;12.48;7.95;;;21.30;1.00;;;;;;7386224;19;20094;-69
2023/08/24 05:48:10;;;;;;;9.60;7.35;;;21.50;1.00;;;;;;7387703;19;20035;-68
2023/08/24 05:50:44;;;;;;;11.07;7.72;;;21.60;1.00;;;;;;7385474;19;20079;-68
2023/08/24 05:53:14;;;;;;;9.73;7.47;;;21.70;1.00;;;;;;7386362;19;20609;-69
2023/08/24 05:55:44;;;;;;;11.30;7.25;;;21.60;1.00;;;;;;7386985;19;20172;-68
2023/08/24 05:58:17;;;;;;;10.65;7.45;;;21.60;1.00;;;;;;7387204;19;20025;-68
2023/08/24 06:00:46;;;;;;;8.20;7.38;;;21.50;1.00;;;;;;7385711;19;20018;-66
2023/08/24 06:03:16;;;;;;;8.45;7.10;;;21.70;1.00;;;;;;7386899;19;20039;-69
2023/08/24 06:05:46;;;;;;;15.38;6.80;;;21.80;1.00;;;;;;7386495;19;20017;-71
2023/08/24 06:08:16;;;;;;;10.73;6.78;;;21.90;1.00;;;;;;7386257;19;20066;-69
2023/08/24 06:10:46;;;;;;;12.18;6.75;;;21.90;1.00;;;;;;7385657;19;20099;-68
2023/08/24 06:13:19;;;;;;;7.60;6.60;;;22.00;1.00;;;;;;7387141;19;20100;-67
2023/08/24 06:15:48;;;;;;;8.35;6.63;;;22.20;1.00;;;;;;7386657;19;20086;-69
2023/08/24 06:18:18;;;;;;;8.27;5.65;;;22.30;1.00;;;;;;7385543;19;20486;-69
2023/08/24 06:20:49;;;;;;;8.88;5.80;;;22.20;1.00;;;;;;7385043;19;20085;-67
2023/08/24 06:23:19;;;;;;;6.93;5.53;;;22.50;1.00;;;;;;7385714;19;20422;-69
2023/08/24 06:25:49;;;;;;;14.10;5.75;;;22.60;1.00;;;;;;7387519;19;20007;-68
2023/08/24 06:28:22;;;;;;;10.60;5.28;;;22.60;1.00;;;;;;7385847;19;20015;-68
2023/08/24 06:30:52;;;;;;;7.57;5.28;;;22.70;1.00;;;;;;7384570;19;20015;-68
2023/08/24 06:33:22;;;;;;;6.72;4.78;;;22.70;1.00;;;;;;7386005;19;20066;-68
2023/08/24 06:35:52;;;;;;;6.47;4.88;;;22.40;1.00;;;;;;7386082;19;20015;-68
2023/08/24 06:38:22;;;;;;;6.05;5.45;;;22.60;1.00;;;;;;7386056;19;20018;-68
2023/08/24 06:40:51;;;;;;;6.97;5.22;;;22.60;1.00;;;;;;7384152;19;20018;-69
2023/08/24 06:43:24;;;;;;;8.75;5.53;;;22.30;1.00;;;;;;7385363;19;20074;-69
2023/08/24 06:45:54;;;;;;;7.30;6.20;;;22.30;1.00;;;;;;7386310;19;20014;-68
2023/08/24 06:48:24;;;;;;;11.18;6.40;;;21.90;1.00;;;;;;7384844;19;20021;-69
2023/08/24 06:50:54;;;;;;;9.52;6.50;;;21.70;1.00;;;;;;7385424;19;20018;-68
2023/08/24 06:53:24;;;;;;;7.18;6.47;;;21.60;1.00;;;;;;7381950;19;20015;-69
2023/08/24 06:55:57;;;;;;;8.95;6.63;;;21.50;1.00;;;;;;7384037;19;20497;-68
2023/08/24 06:58:30;;;;;;;7.72;6.20;;;21.60;1.00;;;;;;7386032;19;20491;-68
2023/08/24 07:01:00;;;;;;;9.77;7.50;;;21.60;1.00;;;;;;7384713;19;20015;-68
2023/08/24 07:03:30;;;;;;;9.95;6.90;;;21.50;1.00;;;;;;7390445;19;20018;-68
2023/08/24 07:06:00;;;;;;;10.65;7.35;;;21.60;1.00;;;;;;7392393;19;20019;-68
2023/08/24 07:08:30;;;;;;;8.00;7.20;;;21.70;1.00;;;;;;7390030;19;20319;-68
2023/08/24 07:11:00;;;;;;;8.98;7.20;;;21.90;1.00;;;;;;7385688;19;20011;-68
2023/08/24 07:13:32;;;;;;;9.55;8.43;;;21.90;1.00;;;;;;7386311;19;20099;-67
2023/08/24 07:16:02;;;;;;;13.65;7.63;;;22.20;1.00;;;;;;7392392;19;20081;-68
2023/08/24 07:18:33;;;;;;;9.25;6.93;;;22.40;1.00;;;;;;7391418;19;20021;-69
2023/08/24 07:21:02;;;;;;;8.93;7.00;;;22.50;1.00;;;;;;7386306;19;20014;-68
2023/08/24 07:23:32;;;;;;;9.93;6.20;;;22.30;1.00;;;;;;7390974;19;20015;-69
2023/08/24 07:26:02;;;;;;;15.35;6.15;;;22.20;1.00;;;;;;7389647;19;20019;-69
2023/08/24 07:28:35;;;;;;;8.52;6.18;;;22.10;1.00;;;;;;7391235;19;20022;-68
2023/08/24 07:31:10;;;;;;;8.75;6.47;;;22.20;1.00;;;;;;7387620;19;20018;-67
2023/08/24 07:33:41;;;;;;;6.78;6.05;;;22.30;1.00;;;;;;7389228;19;20010;-68
2023/08/24 07:36:10;;;;;;;7.68;5.85;;;22.30;1.00;;;;;;7392260;19;20066;-68
2023/08/24 07:38:40;;;;;;;8.07;5.68;;;22.20;1.00;;;;;;7390879;19;20018;-68
2023/08/24 07:41:11;;;;;;;7.70;5.45;;;22.20;1.00;;;;;;7386630;19;20399;-68
2023/08/24 07:43:44;;;;;;;5.53;4.90;;;22.20;1.00;;;;;;7390455;19;20414;-67
2023/08/24 07:46:14;;;;;;;8.68;5.63;;;22.40;1.00;;;;;;7391793;19;20018;-67
2023/08/24 07:48:44;;;;;;;6.97;5.93;;;22.90;1.00;;;;;;7389925;19;20443;-69
2023/08/24 07:51:14;;;;;;;6.20;5.60;;;23.30;1.00;;;;;;7388770;19;20089;-69
2023/08/24 07:53:44;;;;;;;7.30;5.30;;;23.20;1.00;;;;;;7388969;19;20416;-69
2023/08/24 07:56:13;;;;;;;10.18;5.70;;;22.70;1.00;;;;;;7391671;19;20082;-68
2023/08/24 07:58:46;;;;;;;7.78;5.68;;;23.10;1.00;;;;;;7384744;19;20042;-68
2023/08/24 08:01:16;;;;;;;7.88;5.13;;;23.60;1.00;;;;;;7386029;19;20022;-69
2023/08/24 08:03:47;;;;;;;11.18;5.43;;;23.80;1.00;;;;;;7387732;19;20014;-69
2023/08/24 08:06:17;;;;;;;7.07;5.20;;;24.10;1.00;;;;;;7389343;19;20010;-69
2023/08/24 08:08:47;;;;;;;7.95;4.50;;;23.90;1.00;;;;;;7389170;19;20018;-69
2023/08/24 08:11:17;;;;;;;6.53;5.13;;;23.80;1.00;;;;;;7385333;19;20019;-68
2023/08/24 08:13:50;;;;;;;10.18;4.95;;;23.50;1.00;;;;;;7390596;19;20011;-68
2023/08/24 08:16:19;;;;;;;5.20;4.40;;;24.10;1.00;;;;;;7387797;19;20007;-68
2023/08/24 08:18:49;;;;;;;6.35;4.70;;;24.70;1.00;;;;;;7387033;19;20122;-70
2023/08/24 08:21:20;;;;;;;6.22;4.25;;;24.50;1.00;;;;;;7387770;19;20022;-68
2023/08/24 08:23:52;;;;;;;7.20;4.35;;;24.50;1.00;;;;;;7390479;19;20017;-70
2023/08/24 08:26:22;;;;;;;6.50;4.57;;;24.80;1.00;;;;;;7389675;19;20019;-68
2023/08/24 08:28:54;;;;;;;4.88;4.38;;;25.00;1.00;;;;;;7389822;19;20007;-69
2023/08/24 08:31:24;;;;;;;5.78;4.10;;;25.10;1.00;;;;;;7384960;19;20014;-69
2023/08/24 08:33:54;;;;;;;8.00;4.60;;;25.10;1.00;;;;;;7389476;19;20022;-69
2023/08/24 08:36:26;;;;;;;6.03;4.47;;;24.90;1.00;;;;;;7390350;19;20010;-69
2023/08/24 08:38:56;;;;;;;7.03;4.32;;;25.30;1.00;;;;;;7387856;19;20014;-69
2023/08/24 08:41:31;;;;;;;7.40;4.82;;;25.40;1.00;;;;;;7387974;19;20078;-70
2023/08/24 08:44:07;;;;;;;8.10;4.63;;;25.00;1.00;;;;;;7384781;19;20018;-69
2023/08/24 08:46:37;;;;;;;4.57;4.07;;;25.20;1.00;;;;;;7389284;19;20018;-68
2023/08/24 08:49:10;;;;;;;6.68;4.20;;;25.60;1.00;;;;;;7387488;19;20086;-70
2023/08/24 08:51:40;;;;;;;8.40;4.20;;;25.70;1.00;;;;;;7386065;19;20022;-69
2023/08/24 08:54:10;;;;;;;5.47;3.85;;;25.80;1.00;;;;;;7386158;19;20097;-69
2023/08/24 08:56:40;;;;;;;13.18;4.28;;;25.60;1.00;;;;;;7390048;19;20015;-69
2023/08/24 08:59:16;;;;;;;8.55;4.75;;;25.60;1.00;;;;;;7386908;19;20018;-69
2023/08/24 09:01:50;;;;;;;7.28;4.30;;;25.70;1.00;;;;;;7386773;19;20598;-69
2023/08/24 09:04:20;;;;;;;6.82;4.35;;;25.90;1.00;;;;;;7385220;19;20035;-68
2023/08/24 09:06:51;;;;;;;5.93;4.63;;;26.10;1.00;;;;;;7387891;19;20118;-68
2023/08/24 09:09:22;;;;;;;7.25;4.68;;;26.00;1.00;;;;;;7387760;19;20487;-68
2023/08/24 09:11:53;;;;;;;6.43;4.72;;;26.10;1.00;;;;;;7385382;19;20078;-69
2023/08/24 09:14:26;;;;;;;5.97;4.28;;;26.10;1.00;;;;;;7383211;19;20040;-69
2023/08/24 09:16:56;;;;;;;6.25;4.35;;;26.40;1.00;;;;;;7385703;19;20665;-70
2023/08/24 09:19:30;;;;;;;8.27;4.90;;;26.60;1.00;;;;;;7381023;19;20017;-69
2023/08/24 09:22:04;;;;;;;6.70;4.78;;;26.80;1.00;;;;;;7385909;19;20024;-68
2023/08/24 09:24:38;;;;;;;5.80;4.75;;;26.70;1.00;;;;;;7385433;19;20033;-68
2023/08/24 09:27:18;;;;;;;5.68;4.10;;;26.50;1.00;;;;;;7389744;19;20042;-69
2023/08/24 09:29:53;;;;;;;5.28;4.32;;;26.80;1.00;;;;;;7385731;19;20022;-70
2023/08/24 09:32:27;;;;;;;5.15;4.40;;;27.00;1.00;;;;;;7388348;19;20006;-69
2023/08/24 09:34:57;;;;;;;;;;;26.80;1.00;;;;;;7388563;19;20022;-69
2023/08/24 09:37:27;;;;;;;6.50;4.53;;;27.00;1.00;;;;;;7386725;19;20340;-68
2023/08/24 09:40:08;;;;;;;18.42;4.53;;;26.90;1.00;;;;;;7384496;19;20028;-70
2023/08/24 09:42:42;;;;;;;8.10;4.63;;;27.20;1.00;;;;;;7379857;19;20836;-70
2023/08/24 09:45:16;;;;;;;6.60;4.25;;;27.40;1.00;;;;;;7378600;19;20481;-69
2023/08/24 09:47:53;;;;;;;4.97;4.40;;;27.40;1.00;;;;;;7387029;19;20014;-69
2023/08/24 09:50:25;;;;;;;5.78;4.53;;;27.90;1.00;;;;;;7386138;19;20057;-69
2023/08/24 09:52:59;;;;;;;5.22;4.50;;;27.50;1.00;;;;;;7380062;19;20422;-69
2023/08/24 09:55:33;;;;;;;5.40;4.30;;;27.80;1.00;;;;;;7384934;19;20021;-69
2023/08/24 09:58:05;;;;;;;9.27;4.65;;;28.00;1.00;;;;;;7384329;19;20222;-70
2023/08/24 10:00:38;;;;;;;6.45;4.35;;;28.40;1.00;;;;;;7388382;19;20021;-68
2023/08/24 10:03:10;;;;;;;5.07;4.57;;;28.10;1.00;;;;;;7379155;19;20495;-68
2023/08/24 10:05:41;;;;;;;7.82;4.63;;;27.70;1.00;;;;;;7379493;19;20090;-69
2023/08/24 10:08:30;;;;;;;9.55;4.90;;;28.20;1.00;;;;;;7378656;19;20089;-69
2023/08/24 10:11:01;;;;;;;8.82;5.28;;;28.30;1.00;;;;;;7379132;19;20082;-69
2023/08/24 10:13:39;;;;;;;6.20;4.65;;;28.60;1.00;;;;;;7387160;19;20038;-68
2023/08/24 10:16:12;;;;;;;10.00;4.43;;;28.80;1.00;;;;;;7382203;19;20010;-70
2023/08/24 10:18:42;;;;;;;;;;;28.90;1.00;;;;;;7384507;19;20016;-69
2023/08/24 10:21:13;;;;;;;7.60;4.70;;;28.70;1.00;;;;;;7386797;19;20350;-69
2023/08/24 10:23:45;;;;;;;8.70;4.30;;;29.00;1.00;;;;;;7387820;19;20601;-69
2023/08/24 10:26:17;;;;;;;5.50;4.50;;;29.10;1.00;;;;;;7387161;19;20562;-68
2023/08/24 10:28:48;;;;;;;7.78;4.63;;;29.20;1.00;;;;;;7389413;19;20029;-69
2023/08/24 10:31:21;;;;;;;7.18;4.95;;;29.30;1.00;;;;;;7379978;19;20015;-68
2023/08/24 10:33:52;;;;;;;7.63;4.63;;;29.20;1.00;;;;;;7389895;19;20010;-68
2023/08/24 10:36:22;;;;;;;6.03;4.80;;;29.30;1.00;;;;;;7389237;19;20078;-69
2023/08/24 10:38:52;;;;;;;4.70;3.92;;;29.60;1.00;;;;;;7391692;19;20066;-68
2023/08/24 10:41:22;;;;;;;6.43;4.80;;;29.80;1.00;;;;;;7387665;19;20014;-69
2023/08/24 10:43:55;;;;;;;7.82;4.50;;;29.80;1.00;;;;;;7389783;19;20044;-68
2023/08/24 10:46:27;;;;;;;6.30;4.68;;;29.50;1.00;;;;;;7387968;19;20011;-69
2023/08/24 10:49:02;;;;;;;6.82;4.03;;;29.80;1.00;;;;;;7396366;19;20010;-69
2023/08/24 10:51:32;;;;;;;5.03;4.50;;;30.20;1.00;;;;;;7394000;19;20011;-69
2023/08/24 10:54:04;;;;;;;6.78;4.93;;;30.10;1.00;;;;;;7395723;19;20042;-69
2023/08/24 10:56:38;;;;;;;8.15;4.80;;;29.80;1.00;;;;;;7391760;19;20018;-69
2023/08/24 10:59:19;;;;;;;7.18;4.70;;;29.90;1.00;;;;;;7392485;19;20353;-70
2023/08/24 11:02:01;;;;;;;5.65;4.80;;;30.00;1.00;;;;;;7387317;19;20029;-69
2023/08/24 11:04:31;;;;;;;8.02;4.50;;;30.20;1.00;;;;;;7389926;19;20013;-68
2023/08/24 11:07:02;;;;;;;5.30;4.50;;;30.20;1.00;;;;;;7388340;19;20010;-70
2023/08/24 11:09:48;;;;;;;5.20;4.68;;;30.20;1.00;;;;;;7387741;19;20010;-69
2023/08/24 11:12:18;;;;;;;7.80;4.32;;;29.90;1.00;;;;;;7389011;19;20018;-69
2023/08/24 11:14:54;;;;;;;5.78;4.78;;;30.20;1.00;;;;;;7395035;19;20413;-69
2023/08/24 11:17:32;;;;;;;10.52;5.60;;;30.40;1.00;;;;;;7392243;19;20015;-69
2023/08/24 11:20:03;;;;;;;6.35;5.75;;;30.40;1.00;;;;;;7393773;19;20014;-69
2023/08/24 11:22:36;;;;;;;7.75;4.50;;;30.40;1.00;;;;;;7391170;19;20502;-70
2023/08/24 11:25:07;;;;;;;5.43;4.78;;;30.60;1.00;;;;;;7387777;19;20139;-70
2023/08/24 11:27:38;;;;;;;7.07;5.45;;;30.50;1.00;;;;;;7393179;19;20506;-70
2023/08/24 11:30:10;;;;;;;6.47;4.55;;;30.80;1.00;;;;;;7387938;19;20018;-69
2023/08/24 11:32:42;;;;;;;6.40;4.97;;;30.90;1.00;;;;;;7389837;19;20505;-69
2023/08/24 11:35:13;;;;;;;5.63;4.82;;;30.80;1.00;;;;;;7390938;19;20006;-69
2023/08/24 11:37:43;;;;;;;6.25;4.70;;;31.10;1.00;;;;;;7392551;19;20096;-69
2023/08/24 11:40:20;;;;;;;8.05;5.35;;;31.10;1.00;;;;;;7389360;19;20018;-70
2023/08/24 11:42:50;;;;;;;8.27;4.93;;;31.30;1.00;;;;;;7388438;19;20139;-68
2023/08/24 11:45:21;;;;;;;8.02;5.10;;;31.10;1.00;;;;;;7385842;19;20060;-69
2023/08/24 11:47:54;;;;;;;5.72;5.00;;;31.10;1.00;;;;;;7388937;19;20021;-69
2023/08/24 11:50:26;;;;;;;7.15;4.85;;;31.10;1.00;;;;;;7389704;19;20375;-68
2023/08/24 11:52:56;;;;;;;6.07;5.35;;;31.20;1.00;;;;;;7390522;19;20011;-69
2023/08/24 11:55:26;;;;;;;8.18;4.85;;;31.40;1.00;;;;;;7389384;19;20129;-69
2023/08/24 11:57:56;;;;;;;7.38;5.50;;;31.40;1.00;;;;;;7392803;19;20020;-69
2023/08/24 12:00:27;;;;;;;7.25;5.80;;;31.50;1.00;;;;;;7384531;19;20514;-70
2023/08/24 12:03:00;;;;;;;9.48;5.30;;;31.60;1.00;;;;;;7386067;19;20021;-69
2023/08/24 12:05:30;;;;;;;7.70;5.55;;;31.80;1.00;;;;;;7387650;19;20021;-69
2023/08/24 12:08:00;;;;;;;6.38;4.85;;;31.70;1.00;;;;;;7393036;19;20078;-69
2023/08/24 12:10:30;;;;;;;7.50;5.28;;;31.70;1.00;;;;;;7384849;19;20548;-69
2023/08/24 12:13:09;;;;;;;8.85;4.93;;;31.80;1.00;;;;;;7390083;19;20022;-69
2023/08/24 12:15:43;;;;;;;7.22;4.95;;;31.80;1.00;;;;;;7388474;19;20025;-69
2023/08/24 12:18:17;;;;;;;7.78;4.90;;;32.10;1.00;;;;;;7393012;19;20077;-69
2023/08/24 12:20:47;;;;;;;10.80;5.80;;;32.40;1.00;;;;;;7384041;19;20035;-69
2023/08/24 12:23:17;;;;;;;6.70;4.97;;;32.20;1.00;;;;;;7385161;19;20097;-69
2023/08/24 12:25:47;;;;;;;6.43;4.95;;;32.20;1.00;;;;;;7389827;19;20414;-71
2023/08/24 12:28:19;;;;;;;6.57;5.20;;;32.00;1.00;;;;;;7391604;19;20022;-70
2023/08/24 12:30:51;;;;;;;8.35;5.38;;;32.20;1.00;;;;;;7387512;19;20023;-69
2023/08/24 12:33:28;;;;;;;5.82;5.20;;;32.10;1.00;;;;;;7389649;19;20039;-68
2023/08/24 12:35:58;;;;;;;6.00;5.22;;;32.20;1.00;;;;;;7382812;19;20015;-69
2023/08/24 12:38:29;;;;;;;8.10;5.22;;;32.30;1.00;;;;;;7392287;19;20026;-69
2023/08/24 12:40:59;;;;;;;7.28;4.95;;;32.50;1.00;;;;;;7387501;19;20078;-69
2023/08/24 12:43:29;;;;;;;8.30;5.30;;;32.50;1.00;;;;;;7389883;19;20026;-69
2023/08/24 12:45:59;;;;;;;6.38;5.40;;;32.70;1.00;;;;;;7388752;19;20017;-69
2023/08/24 12:48:32;;;;;;;6.10;5.10;;;32.60;1.00;;;;;;7390885;19;20014;-68
2023/08/24 12:51:02;;;;;;;8.63;5.00;;;32.60;1.00;;;;;;7387400;19;20018;-68
2023/08/24 12:53:32;;;;;;;9.27;5.25;;;32.80;1.00;;;;;;7385553;19;20018;-68
2023/08/24 12:56:02;;;;;;;5.90;4.85;;;32.90;1.00;;;;;;7381990;19;20015;-68
2023/08/24 12:58:32;;;;;;;8.80;5.40;;;33.10;1.00;;;;;;7383937;19;20252;-69
2023/08/24 13:01:03;;;;;;;10.90;5.07;;;33.00;1.00;;;;;;7384235;19;20042;-69
2023/08/24 13:03:39;;;;;;;8.15;5.10;;;32.90;1.00;;;;;;7380529;19;20017;-68
2023/08/24 13:06:09;;;;;;;11.15;5.18;;;32.90;1.00;;;;;;7388387;19;20018;-69
2023/08/24 13:08:52;;;;;;;7.93;5.13;;;32.80;1.00;;;;;;7385979;19;20494;-68
2023/08/24 13:11:23;;;;;;;5.72;4.97;;;32.60;1.00;;;;;;7381322;19;20010;-69
2023/08/24 13:13:53;;;;;;;7.78;5.10;;;32.70;1.00;;;;;;7384947;19;20015;-69
2023/08/24 13:16:23;;;;;;;7.60;5.45;;;32.80;1.00;;;;;;7386628;19;20022;-69